Аэропорт: Алыкель. Норильск

ICAO: UOOO

METAR:
2019-11-21 01:30:00
UOOO 210130Z 17005MPS 9999 -SN BKN016 M15/M17 Q1005 R19/420532 NOSIG RMK QFE738/0984
METAR:
2019-11-20 22:58:00
TAF UOOO 202258Z 2100/2124 17005G11MPS 4000 -SHSN DRSN BKN011CB TEMPO 2100/2200 1000 SHSN BR SCT004 BKN007CB BECMG 2108/2110 20004G09MPS